Time;durP1;ratioP1;P1;durP2;ratioP2;P2;SDS_P1;SDS_P2;PMS_P1;PMS_P2;Temp;Humidity;BMP_temperature;BMP_pressure;BME280_temperature;BME280_humidity;BME280_pressure;Samples;Min_cycle;Max_cycle;Signal;HPM_P1;HPM_P2
2020/12/08 00:01:39;;;;;;;27.77;20.60;;;3.80;99.90;;;;;;5069645;28;20436;-28
2020/12/08 00:04:06;;;;;;;29.90;20.47;;;3.70;99.90;;;;;;5070562;28;20476;-27
2020/12/08 00:06:33;;;;;;;29.97;19.47;;;3.70;99.90;;;;;;5069271;28;20475;-28
2020/12/08 00:08:59;;;;;;;25.77;18.80;;;3.70;99.90;;;;;;5068909;28;20453;-28
2020/12/08 00:11:26;;;;;;;30.53;20.20;;;3.70;99.90;;;;;;5068714;28;20465;-28
2020/12/08 00:13:52;;;;;;;31.57;19.37;;;3.60;99.90;;;;;;5068148;28;21042;-27
2020/12/08 00:16:19;;;;;;;27.60;18.93;;;3.50;99.90;;;;;;5070142;28;20513;-28
2020/12/08 00:18:47;;;;;;;29.70;18.93;;;3.50;99.90;;;;;;5051521;28;20445;-27
2020/12/08 00:21:13;;;;;;;29.33;20.47;;;3.50;99.90;;;;;;5069732;28;20486;-27
2020/12/08 00:23:40;;;;;;;30.97;19.30;;;3.60;99.90;;;;;;5068409;28;20453;-28
2020/12/08 00:26:07;;;;;;;30.50;20.60;;;3.50;99.90;;;;;;5069427;28;20861;-27
2020/12/08 00:28:33;;;;;;;37.53;21.20;;;3.40;99.90;;;;;;5068323;28;20436;-27
2020/12/08 00:31:00;;;;;;;35.83;21.97;;;3.30;99.90;;;;;;5068330;28;20870;-28
2020/12/08 00:33:27;;;;;;;34.27;22.43;;;3.30;99.90;;;;;;5068765;28;20847;-28
2020/12/08 00:35:58;;;;;;;30.90;20.57;;;3.20;99.90;;;;;;5069807;28;20440;-27
2020/12/08 00:38:25;;;;;;;34.10;21.40;;;3.10;99.90;;;;;;5070364;28;20888;-28
2020/12/08 00:40:51;;;;;;;28.70;20.53;;;3.20;99.90;;;;;;5073659;28;20441;-27
2020/12/08 00:43:18;;;;;;;31.63;22.10;;;3.30;99.90;;;;;;5072938;28;20429;-27
2020/12/08 00:45:46;;;;;;;34.47;20.33;;;3.40;99.90;;;;;;5072851;28;20448;-27
2020/12/08 00:48:13;;;;;;;36.33;21.00;;;3.50;99.90;;;;;;5073204;28;20472;-27
2020/12/08 00:50:40;;;;;;;31.07;20.70;;;3.50;99.90;;;;;;5054326;28;20437;-28
2020/12/08 00:53:08;;;;;;;33.60;20.53;;;3.50;99.90;;;;;;5072777;28;20916;-27
2020/12/08 00:55:35;;;;;;;29.73;21.27;;;3.50;99.90;;;;;;5073235;28;20445;-27
2020/12/08 00:58:03;;;;;;;32.23;21.30;;;3.50;99.90;;;;;;5055535;28;20436;-27
2020/12/08 01:00:30;;;;;;;33.93;19.87;;;3.50;99.90;;;;;;5055951;28;20532;-27
2020/12/08 01:02:56;;;;;;;35.20;22.30;;;3.50;99.90;;;;;;5054907;28;20448;-27
2020/12/08 01:05:23;;;;;;;37.10;23.77;;;3.50;99.90;;;;;;5073335;28;20445;-27
2020/12/08 01:07:55;;;;;;;35.90;22.40;;;3.50;99.90;;;;;;5055692;28;20431;-27
2020/12/08 01:10:28;;;;;;;35.67;21.50;;;3.50;99.90;;;;;;5054450;28;20441;-28
2020/12/08 01:12:55;;;;;;;38.03;21.23;;;3.40;99.90;;;;;;5055021;28;20985;-27
2020/12/08 01:15:23;;;;;;;37.20;23.23;;;3.40;99.90;;;;;;5054659;28;20433;-27
2020/12/08 01:17:49;;;;;;;38.90;23.47;;;3.40;99.90;;;;;;5054886;28;20528;-27
2020/12/08 01:20:16;;;;;;;35.80;22.53;;;3.40;99.90;;;;;;5054299;28;20432;-27
2020/12/08 01:22:46;;;;;;;37.97;23.67;;;3.50;99.90;;;;;;5053627;28;20444;-29
2020/12/08 01:25:12;;;;;;;30.27;20.63;;;3.50;99.90;;;;;;5053711;28;20545;-28
2020/12/08 01:27:43;;;;;;;33.20;20.33;;;3.60;99.90;;;;;;5071950;28;20448;-29
2020/12/08 01:30:10;;;;;;;35.60;20.90;;;3.60;99.90;;;;;;5052383;28;20532;-28
2020/12/08 01:32:44;;;;;;;31.00;20.40;;;3.60;99.90;;;;;;5053833;28;20479;-28
2020/12/08 01:35:11;;;;;;;37.00;23.20;;;3.60;99.90;;;;;;5054865;28;20764;-28
2020/12/08 01:37:37;;;;;;;35.97;22.40;;;3.60;99.90;;;;;;5071700;28;20548;-27
2020/12/08 01:40:07;;;;;;;34.40;20.27;;;3.50;99.90;;;;;;5055124;28;21293;-28
2020/12/08 01:42:34;;;;;;;32.53;21.00;;;3.50;99.90;;;;;;5073189;28;20449;-27
2020/12/08 01:45:03;;;;;;;34.10;22.63;;;3.50;99.90;;;;;;5072608;28;20451;-27
2020/12/08 01:47:30;;;;;;;37.10;22.90;;;3.50;99.90;;;;;;5055396;28;20498;-27
2020/12/08 01:49:59;;;;;;;31.03;19.40;;;3.40;99.90;;;;;;5070455;28;20480;-27
2020/12/08 01:52:27;;;;;;;33.97;21.67;;;3.30;99.90;;;;;;5054794;28;20500;-28
2020/12/08 01:55:02;;;;;;;31.53;20.73;;;3.20;99.90;;;;;;5054824;28;20750;-27
2020/12/08 01:57:34;;;;;;;26.37;19.07;;;3.20;99.90;;;;;;5054969;28;20504;-27
2020/12/08 02:00:07;;;;;;;29.13;19.17;;;3.10;99.90;;;;;;5054243;28;20539;-28
2020/12/08 02:02:41;;;;;;;37.00;21.93;;;3.00;99.90;;;;;;5072112;28;20440;-28
2020/12/08 02:05:14;;;;;;;30.00;20.17;;;2.80;99.90;;;;;;5054502;28;20429;-26
2020/12/08 02:07:43;;;;;;;28.87;17.20;;;2.70;99.90;;;;;;5054426;28;20476;-27
2020/12/08 02:10:10;;;;;;;34.07;19.63;;;2.60;99.90;;;;;;5054573;28;20449;-28
2020/12/08 02:12:37;;;;;;;33.60;18.93;;;2.70;99.90;;;;;;5053758;28;20461;-28
2020/12/08 02:15:05;;;;;;;25.97;17.73;;;2.60;99.90;;;;;;5054461;28;20476;-28
2020/12/08 02:17:34;;;;;;;26.17;19.27;;;2.60;99.90;;;;;;5071542;28;20446;-27
2020/12/08 02:20:03;;;;;;;31.10;19.40;;;2.70;99.90;;;;;;5054657;28;20440;-28
2020/12/08 02:22:32;;;;;;;29.00;18.80;;;2.80;99.90;;;;;;5054123;28;20452;-28
2020/12/08 02:24:59;;;;;;;35.70;20.80;;;2.90;99.90;;;;;;5053980;28;20529;-28
2020/12/08 02:27:26;;;;;;;35.13;21.37;;;2.90;99.90;;;;;;5054156;28;20510;-27
2020/12/08 02:29:58;;;;;;;38.57;23.07;;;2.90;99.90;;;;;;5052987;28;20443;-26
2020/12/08 02:32:25;;;;;;;40.03;21.23;;;3.00;99.90;;;;;;5071389;28;20491;-27
2020/12/08 02:34:52;;;;;;;33.60;20.80;;;2.90;99.90;;;;;;5072310;28;20876;-27
2020/12/08 02:37:19;;;;;;;31.80;20.37;;;3.00;99.90;;;;;;5053552;28;21040;-27
2020/12/08 02:39:49;;;;;;;31.67;20.13;;;2.90;99.90;;;;;;5037338;28;20932;-27
2020/12/08 02:42:15;;;;;;;33.87;20.47;;;2.90;99.90;;;;;;5071819;28;20494;-27
2020/12/08 02:44:44;;;;;;;32.20;19.70;;;2.80;99.90;;;;;;5053842;28;20437;-28
2020/12/08 02:47:11;;;;;;;31.80;20.00;;;2.70;99.90;;;;;;5053403;28;20441;-27
2020/12/08 02:49:38;;;;;;;33.67;19.93;;;2.70;99.90;;;;;;5053825;28;20480;-28
2020/12/08 02:52:05;;;;;;;32.63;21.77;;;2.60;99.90;;;;;;5052814;28;20465;-27
2020/12/08 02:54:39;;;;;;;32.03;19.23;;;2.60;99.90;;;;;;5053864;28;20445;-28
2020/12/08 02:57:08;;;;;;;28.70;18.80;;;2.60;99.90;;;;;;5052674;28;20516;-27
2020/12/08 02:59:38;;;;;;;27.00;17.43;;;2.60;99.90;;;;;;5052440;28;20848;-27
2020/12/08 03:02:06;;;;;;;31.20;20.77;;;2.50;99.90;;;;;;5052873;28;20433;-28
2020/12/08 03:04:40;;;;;;;33.70;19.83;;;2.50;99.90;;;;;;5053351;28;20478;-27
2020/12/08 03:07:09;;;;;;;35.50;19.80;;;2.40;99.90;;;;;;5051841;28;20472;-29
2020/12/08 03:09:36;;;;;;;35.00;20.37;;;2.30;99.90;;;;;;5052963;28;20465;-28
2020/12/08 03:12:06;;;;;;;33.30;19.93;;;2.20;99.90;;;;;;5070337;28;20464;-27
2020/12/08 03:14:33;;;;;;;31.00;20.37;;;2.20;99.90;;;;;;5053855;28;20441;-29
2020/12/08 03:17:00;;;;;;;29.03;19.43;;;2.10;99.90;;;;;;5054164;28;20540;-27
2020/12/08 03:19:29;;;;;;;34.10;19.77;;;2.00;99.90;;;;;;5053778;28;21114;-27
2020/12/08 03:21:56;;;;;;;27.90;18.03;;;1.90;99.90;;;;;;5052736;28;20433;-28
2020/12/08 03:24:36;;;;;;;29.00;19.80;;;1.90;99.90;;;;;;5051944;28;20774;-28
2020/12/08 03:27:04;;;;;;;36.07;21.80;;;1.90;99.90;;;;;;5052104;28;20448;-28
2020/12/08 03:29:31;;;;;;;29.37;18.83;;;1.90;99.90;;;;;;5053653;28;20437;-28
2020/12/08 03:32:01;;;;;;;30.17;19.60;;;1.80;99.90;;;;;;5052484;28;20554;-29
2020/12/08 03:34:28;;;;;;;32.80;18.50;;;1.80;99.90;;;;;;5053524;28;20443;-30
2020/12/08 03:36:56;;;;;;;27.47;18.97;;;1.80;99.90;;;;;;5052606;28;21060;-28
2020/12/08 03:39:22;;;;;;;32.97;19.47;;;1.90;99.90;;;;;;5071692;28;20467;-28
2020/12/08 03:41:49;;;;;;;28.30;18.17;;;1.80;99.90;;;;;;5052495;28;20437;-27
2020/12/08 03:44:16;;;;;;;31.37;19.20;;;1.80;99.90;;;;;;5052512;28;20476;-26
2020/12/08 03:46:44;;;;;;;31.87;17.93;;;1.80;99.90;;;;;;5052184;28;20517;-27
2020/12/08 03:49:12;;;;;;;29.27;18.80;;;1.80;99.90;;;;;;5069368;28;20476;-27
2020/12/08 03:51:40;;;;;;;28.97;18.03;;;1.80;99.90;;;;;;5069530;28;20464;-28
2020/12/08 03:54:14;;;;;;;29.03;18.60;;;1.80;99.90;;;;;;5053040;28;20453;-27
2020/12/08 03:56:45;;;;;;;31.17;20.63;;;1.80;99.90;;;;;;5052729;28;20441;-28
2020/12/08 03:59:17;;;;;;;31.13;19.27;;;1.80;99.90;;;;;;5069479;28;20436;-28
2020/12/08 04:01:46;;;;;;;31.50;19.70;;;1.80;99.90;;;;;;5051672;28;20448;-26
2020/12/08 04:04:14;;;;;;;30.00;18.60;;;1.70;99.90;;;;;;5053720;28;20460;-27
2020/12/08 04:06:41;;;;;;;28.87;19.07;;;1.70;99.90;;;;;;5053005;28;20531;-28
2020/12/08 04:09:08;;;;;;;31.10;18.87;;;1.70;99.90;;;;;;5069233;28;20461;-28
2020/12/08 04:11:37;;;;;;;37.60;21.40;;;1.80;99.90;;;;;;5050493;28;20465;-28
2020/12/08 04:14:04;;;;;;;33.30;19.73;;;1.70;99.90;;;;;;5052397;28;20440;-27
2020/12/08 04:16:32;;;;;;;31.17;20.33;;;1.70;99.90;;;;;;5044903;28;20457;-28
2020/12/08 04:19:01;;;;;;;33.47;20.53;;;1.70;99.90;;;;;;5036840;28;20443;-28
2020/12/08 04:21:30;;;;;;;33.10;19.63;;;1.60;99.90;;;;;;5035914;28;20448;-27
2020/12/08 04:24:11;;;;;;;32.27;20.13;;;1.60;99.90;;;;;;5035451;28;20453;-28
2020/12/08 04:26:38;;;;;;;37.47;21.30;;;1.60;99.90;;;;;;5019686;28;20544;-28
2020/12/08 04:29:09;;;;;;;32.57;19.10;;;1.60;99.90;;;;;;5035147;28;20938;-27
2020/12/08 04:31:40;;;;;;;30.83;19.30;;;1.60;99.90;;;;;;5052468;28;20460;-28
2020/12/08 04:34:07;;;;;;;32.87;19.03;;;1.60;99.90;;;;;;5073309;28;20910;-27
2020/12/08 04:36:34;;;;;;;34.63;19.90;;;1.60;99.90;;;;;;5074238;28;20734;-28
2020/12/08 04:39:00;;;;;;;38.57;23.60;;;1.60;99.90;;;;;;5056211;28;20877;-27
2020/12/08 04:41:27;;;;;;;40.90;22.23;;;1.60;99.90;;;;;;5066839;28;20482;-27
2020/12/08 04:43:54;;;;;;;36.57;21.50;;;1.60;99.90;;;;;;5069029;28;20704;-27
2020/12/08 04:46:22;;;;;;;37.10;22.00;;;1.60;99.90;;;;;;5069424;28;20429;-28
2020/12/08 04:48:50;;;;;;;35.03;22.30;;;1.40;99.90;;;;;;5068006;28;20503;-28
2020/12/08 04:51:18;;;;;;;35.90;20.90;;;1.40;99.90;;;;;;5067253;28;20437;-27
2020/12/08 04:53:46;;;;;;;40.17;23.03;;;1.40;99.90;;;;;;5067990;28;20456;-28
2020/12/08 04:56:13;;;;;;;78.37;41.77;;;1.40;99.90;;;;;;5066747;28;20441;-27
2020/12/08 04:58:42;;;;;;;44.77;26.37;;;1.40;99.90;;;;;;5064343;28;20838;-27
2020/12/08 05:01:09;;;;;;;37.67;21.77;;;1.40;99.90;;;;;;5067387;28;20835;-27
2020/12/08 05:03:37;;;;;;;37.93;21.60;;;1.40;99.90;;;;;;5066915;28;20725;-29
2020/12/08 05:06:05;;;;;;;35.77;20.70;;;1.40;99.90;;;;;;5067151;28;20745;-28
2020/12/08 05:08:32;;;;;;;34.10;22.53;;;1.40;99.90;;;;;;5066734;28;20644;-28
2020/12/08 05:11:08;;;;;;;37.60;22.50;;;1.30;99.90;;;;;;5067857;28;20489;-28
2020/12/08 05:13:34;;;;;;;36.33;21.83;;;1.40;99.90;;;;;;5068032;28;20436;-28
2020/12/08 05:16:01;;;;;;;41.23;22.97;;;1.40;99.90;;;;;;5066471;28;20711;-27
2020/12/08 05:18:28;;;;;;;43.00;22.93;;;1.30;99.90;;;;;;5067842;28;20719;-26
2020/12/08 05:21:05;;;;;;;37.40;21.90;;;1.30;99.90;;;;;;5065877;28;20707;-24
2020/12/08 05:23:39;;;;;;;33.67;22.27;;;1.30;99.90;;;;;;5066224;28;20500;-27
2020/12/08 05:26:07;;;;;;;39.03;19.93;;;1.30;99.90;;;;;;5065114;28;20497;-26
2020/12/08 05:28:34;;;;;;;38.17;22.37;;;1.30;99.90;;;;;;5065855;28;20539;-27
2020/12/08 05:31:01;;;;;;;39.87;21.60;;;1.30;99.90;;;;;;5064359;28;20441;-26
2020/12/08 05:33:28;;;;;;;40.80;24.30;;;1.40;99.90;;;;;;5064778;28;20456;-26
2020/12/08 05:35:58;;;;;;;36.47;24.25;;;1.40;99.90;;;;;;5063975;28;20764;-25
2020/12/08 05:38:28;;;;;;;47.13;26.77;;;1.50;99.90;;;;;;5064311;28;20558;-25
2020/12/08 05:41:00;;;;;;;44.23;24.30;;;1.50;99.90;;;;;;5061592;28;20825;-26
2020/12/08 05:43:34;;;;;;;41.07;24.30;;;1.50;99.90;;;;;;5059823;28;20715;-26
2020/12/08 05:46:04;;;;;;;42.27;23.33;;;1.50;99.90;;;;;;5059950;28;20441;-28
2020/12/08 05:48:31;;;;;;;61.07;31.17;;;1.50;99.90;;;;;;5058260;28;20548;-25
2020/12/08 05:51:00;;;;;;;40.93;25.60;;;1.50;99.90;;;;;;5059267;28;20549;-25
2020/12/08 05:53:27;;;;;;;47.90;24.53;;;1.50;99.90;;;;;;5058547;28;20740;-25
2020/12/08 05:56:04;;;;;;;40.10;23.97;;;1.50;99.90;;;;;;5059084;28;20444;-26
2020/12/08 05:58:30;;;;;;;38.50;22.67;;;1.50;99.90;;;;;;5060158;28;20881;-26
2020/12/08 06:01:03;;;;;;;41.63;21.50;;;1.50;99.90;;;;;;5059409;28;20842;-25
2020/12/08 06:03:30;;;;;;;41.77;23.90;;;1.50;99.90;;;;;;5056990;28;20448;-25
2020/12/08 06:06:06;;;;;;;34.60;21.67;;;1.40;99.90;;;;;;5043000;28;20461;-26
2020/12/08 06:08:42;;;;;;;35.57;21.10;;;1.40;99.90;;;;;;5059517;28;20808;-25
2020/12/08 06:11:10;;;;;;;32.87;21.30;;;1.30;99.90;;;;;;5056826;28;20444;-26
2020/12/08 06:13:36;;;;;;;34.53;21.80;;;1.30;99.90;;;;;;5056078;28;20607;-25
2020/12/08 06:16:14;;;;;;;43.50;25.87;;;1.20;99.90;;;;;;5057827;28;20498;-25
2020/12/08 06:18:41;;;;;;;41.50;25.80;;;1.20;99.90;;;;;;5054695;28;20771;-28
2020/12/08 06:21:18;;;;;;;45.50;26.87;;;1.10;99.90;;;;;;5052588;28;20557;-28
2020/12/08 06:23:45;;;;;;;46.87;27.03;;;1.10;99.90;;;;;;5050107;28;20460;-28
2020/12/08 06:26:12;;;;;;;51.13;29.50;;;1.10;99.90;;;;;;5051058;28;20842;-28
2020/12/08 06:28:39;;;;;;;40.90;26.20;;;1.00;99.90;;;;;;5049008;28;20706;-29
2020/12/08 06:31:07;;;;;;;46.93;29.90;;;1.00;99.90;;;;;;5048368;28;20447;-28
2020/12/08 06:33:46;;;;;;;38.40;25.00;;;1.00;99.90;;;;;;5051039;28;20825;-29
2020/12/08 06:36:12;;;;;;;42.10;25.70;;;1.00;99.90;;;;;;5048724;28;20441;-29
2020/12/08 06:38:39;;;;;;;39.30;23.63;;;0.90;99.90;;;;;;5048120;28;20869;-28
2020/12/08 06:41:06;;;;;;;45.67;24.50;;;0.90;99.90;;;;;;5043965;28;20768;-29
2020/12/08 06:43:37;;;;;;;38.77;23.13;;;0.90;99.90;;;;;;5039755;28;20547;-28
2020/12/08 06:46:10;;;;;;;40.90;23.87;;;0.90;99.90;;;;;;5025377;28;20900;-29
2020/12/08 06:48:39;;;;;;;39.70;23.15;;;0.90;99.90;;;;;;5040611;28;20983;-28
2020/12/08 06:51:17;;;;;;;46.27;25.87;;;0.90;99.90;;;;;;5041702;28;20207;-28
2020/12/08 06:53:43;;;;;;;45.70;26.60;;;0.90;99.90;;;;;;5040364;28;20704;-29
2020/12/08 06:56:10;;;;;;;47.17;24.63;;;0.90;99.90;;;;;;5043775;28;20760;-29
2020/12/08 06:58:47;;;;;;;43.50;25.37;;;0.80;99.90;;;;;;5041293;28;20837;-28
2020/12/08 07:01:13;;;;;;;43.45;22.85;;;0.90;99.90;;;;;;5034893;28;20580;-28
2020/12/08 07:03:40;;;;;;;40.50;24.00;;;0.90;99.90;;;;;;5042558;28;20313;-29
2020/12/08 07:06:07;;;;;;;49.97;26.83;;;0.90;99.90;;;;;;5040691;28;20600;-28
2020/12/08 07:08:37;;;;;;;45.60;25.60;;;0.90;99.90;;;;;;5039763;28;20886;-27
2020/12/08 07:11:05;;;;;;;43.38;23.55;;;0.90;99.90;;;;;;5036242;28;20207;-29
2020/12/08 07:13:32;;;;;;;44.38;24.55;;;0.90;99.90;;;;;;5037446;28;20525;-29
2020/12/08 07:15:59;;;;;;;45.40;24.50;;;0.90;99.90;;;;;;5019000;28;20574;-29
2020/12/08 07:18:30;;;;;;;47.08;25.23;;;0.90;99.90;;;;;;5032471;28;20679;-30
2020/12/08 07:20:58;;;;;;;47.85;26.40;;;1.10;99.90;;;;;;5031655;28;20289;-29
2020/12/08 07:23:27;;;;;;;46.77;27.10;;;1.10;99.90;;;;;;5038440;28;20911;-29
2020/12/08 07:25:54;;;;;;;55.87;27.00;;;1.20;99.90;;;;;;5034375;28;20781;-28
2020/12/08 07:28:20;;;;;;;52.87;26.90;;;1.20;99.90;;;;;;5030738;28;20437;-29
2020/12/08 07:30:50;;;;;;;47.00;25.03;;;1.30;99.90;;;;;;5019089;28;20969;-29
2020/12/08 07:33:17;;;;;;;43.90;25.40;;;1.30;99.90;;;;;;5032122;28;20465;-28
2020/12/08 07:35:45;;;;;;;44.63;25.97;;;1.30;99.90;;;;;;5033711;28;20597;-28
2020/12/08 07:38:12;;;;;;;52.20;28.27;;;1.30;99.90;;;;;;5030683;28;20537;-29
2020/12/08 07:40:41;;;;;;;44.47;26.30;;;1.30;99.90;;;;;;5034423;28;20758;-29
2020/12/08 07:43:08;;;;;;;52.10;27.13;;;1.20;99.90;;;;;;5039314;28;20754;-29
2020/12/08 07:45:42;;;;;;;45.63;23.90;;;1.20;99.90;;;;;;5038361;28;20447;-28
2020/12/08 07:48:11;;;;;;;45.37;25.40;;;1.20;99.90;;;;;;5016280;28;20529;-27
2020/12/08 07:50:38;;;;;;;52.93;26.40;;;1.00;99.90;;;;;;5037742;28;20451;-28
2020/12/08 07:53:07;;;;;;;41.20;23.57;;;1.00;99.90;;;;;;5034158;28;20498;-27
2020/12/08 07:55:39;;;;;;;50.20;27.00;;;1.20;99.90;;;;;;5024885;28;20472;-28
2020/12/08 07:58:07;;;;;;;47.10;26.23;;;1.30;99.90;;;;;;5022046;28;20951;-28
2020/12/08 08:00:34;;;;;;;48.30;26.03;;;1.40;99.90;;;;;;5034990;28;20452;-27
2020/12/08 08:03:02;;;;;;;46.10;26.27;;;1.50;99.90;;;;;;5029106;28;21334;-28
2020/12/08 08:05:33;;;;;;;44.03;25.87;;;1.70;99.90;;;;;;5023329;28;20449;-28
2020/12/08 08:08:01;;;;;;;44.43;25.37;;;1.80;99.90;;;;;;5022640;28;20460;-28
2020/12/08 08:10:28;;;;;;;49.37;26.27;;;1.90;99.90;;;;;;5030062;28;20441;-28
2020/12/08 08:12:56;;;;;;;45.17;26.10;;;2.00;99.90;;;;;;5025738;28;20587;-28
2020/12/08 08:15:23;;;;;;;39.00;23.30;;;2.10;99.90;;;;;;5026712;28;20444;-28
2020/12/08 08:17:50;;;;;;;37.70;24.13;;;2.20;99.90;;;;;;5025542;28;20460;-27
2020/12/08 08:20:17;;;;;;;53.10;31.07;;;2.30;99.90;;;;;;5023430;28;20946;-28
2020/12/08 08:22:45;;;;;;;62.57;34.50;;;2.40;99.90;;;;;;5031081;28;20863;-28
2020/12/08 08:25:15;;;;;;;74.53;43.50;;;2.40;99.90;;;;;;5019177;28;20866;-27
2020/12/08 08:27:42;;;;;;;62.83;36.63;;;2.40;99.90;;;;;;5031216;28;20456;-29
2020/12/08 08:30:10;;;;;;;44.30;27.73;;;2.50;99.90;;;;;;5032642;28;20941;-28
2020/12/08 08:32:39;;;;;;;49.83;28.87;;;2.50;99.90;;;;;;5025117;28;20470;-28
2020/12/08 08:35:06;;;;;;;45.00;26.10;;;2.50;99.90;;;;;;5027021;28;20447;-27
2020/12/08 08:37:33;;;;;;;39.93;24.93;;;2.50;99.90;;;;;;5023955;28;20448;-28
2020/12/08 08:40:00;;;;;;;43.97;27.40;;;2.60;99.90;;;;;;5018777;28;20459;-27
2020/12/08 08:42:31;;;;;;;47.30;30.13;;;2.60;99.90;;;;;;5028335;28;21004;-26
2020/12/08 08:44:58;;;;;;;42.63;27.43;;;2.70;99.90;;;;;;5020368;28;20442;-29
2020/12/08 08:47:26;;;;;;;34.73;22.53;;;2.70;99.90;;;;;;5034188;28;20452;-27
2020/12/08 08:49:53;;;;;;;35.50;22.70;;;2.70;99.90;;;;;;5037815;28;20541;-27
2020/12/08 08:52:20;;;;;;;35.77;24.70;;;2.80;99.90;;;;;;5038449;28;20479;-28
2020/12/08 08:54:50;;;;;;;37.27;24.00;;;2.80;99.90;;;;;;5040520;28;20984;-27
2020/12/08 08:57:17;;;;;;;38.53;26.00;;;2.90;99.90;;;;;;5040882;28;20448;-27
2020/12/08 08:59:46;;;;;;;37.77;24.77;;;2.90;99.90;;;;;;5058925;28;20458;-28
2020/12/08 09:02:14;;;;;;;40.50;25.80;;;2.90;99.90;;;;;;5063249;28;20447;-27
2020/12/08 09:04:42;;;;;;;38.83;23.17;;;2.90;99.90;;;;;;5060028;28;20435;-26
2020/12/08 09:07:10;;;;;;;41.97;24.97;;;2.90;99.90;;;;;;5030549;28;21147;-27
2020/12/08 09:09:37;;;;;;;46.10;25.40;;;2.80;99.90;;;;;;5045704;28;20498;-26
2020/12/08 09:12:05;;;;;;;37.63;23.90;;;2.70;99.90;;;;;;5039829;28;20569;-27
2020/12/08 09:14:33;;;;;;;38.27;22.93;;;2.70;99.90;;;;;;5044586;28;20924;-27
2020/12/08 09:17:01;;;;;;;35.40;20.20;;;2.90;99.90;;;;;;5044109;28;20476;-27
2020/12/08 09:19:28;;;;;;;34.53;21.40;;;3.10;99.90;;;;;;5040290;28;20443;-27
2020/12/08 09:21:57;;;;;;;37.77;22.80;;;3.10;99.90;;;;;;5039591;28;20559;-27
2020/12/08 09:24:25;;;;;;;51.83;33.47;;;3.20;99.90;;;;;;5043036;28;20460;-27
2020/12/08 09:26:53;;;;;;;37.37;23.33;;;3.40;99.90;;;;;;5042557;28;20437;-28
2020/12/08 09:29:20;;;;;;;40.83;24.60;;;3.50;99.90;;;;;;5022041;28;20471;-27
2020/12/08 09:31:47;;;;;;;31.80;21.90;;;3.70;99.90;;;;;;5038177;28;20444;-26
2020/12/08 09:34:16;;;;;;;32.77;20.87;;;3.70;99.90;;;;;;5040570;28;21184;-27
2020/12/08 09:36:44;;;;;;;36.20;22.90;;;3.70;99.90;;;;;;5037955;28;20448;-28
2020/12/08 09:39:12;;;;;;;32.00;21.23;;;3.80;99.90;;;;;;5034235;28;20464;-28
2020/12/08 09:41:41;;;;;;;40.07;23.40;;;4.00;99.90;;;;;;5041040;28;20559;-27
2020/12/08 09:44:10;;;;;;;33.63;22.20;;;4.10;99.90;;;;;;5043217;28;20460;-28
2020/12/08 09:46:37;;;;;;;39.13;22.63;;;4.20;99.90;;;;;;5022696;28;20445;-27
2020/12/08 09:49:06;;;;;;;33.77;23.13;;;4.20;99.90;;;;;;5035451;28;20613;-27
2020/12/08 09:51:34;;;;;;;36.20;24.03;;;4.20;99.90;;;;;;5038809;28;20508;-28
2020/12/08 09:54:03;;;;;;;37.97;23.43;;;4.20;99.90;;;;;;5041762;28;20496;-27
2020/12/08 09:56:31;;;;;;;31.47;23.10;;;4.20;99.90;;;;;;5046125;28;20478;-27
2020/12/08 09:58:59;;;;;;;36.00;21.90;;;4.20;99.90;;;;;;5036046;28;20545;-29
2020/12/08 10:01:26;;;;;;;31.13;20.97;;;4.00;99.90;;;;;;5038508;28;20476;-27
2020/12/08 10:03:55;;;;;;;33.07;20.57;;;3.90;99.90;;;;;;5037078;28;20893;-28
2020/12/08 10:06:23;;;;;;;33.47;22.20;;;3.80;99.90;;;;;;5040323;28;20440;-27
2020/12/08 10:08:54;;;;;;;32.67;20.87;;;3.90;99.90;;;;;;5021796;28;20475;-28
2020/12/08 10:11:21;;;;;;;30.33;19.63;;;3.90;99.90;;;;;;5031253;28;20533;-27
2020/12/08 10:13:49;;;;;;;33.80;20.87;;;4.00;99.90;;;;;;5018426;28;20572;-28
2020/12/08 10:16:19;;;;;;;28.70;18.73;;;4.10;99.90;;;;;;5029545;28;20449;-27
2020/12/08 10:18:49;;;;;;;28.43;19.10;;;4.10;99.90;;;;;;5036135;28;20460;-27
2020/12/08 10:21:23;;;;;;;29.90;20.83;;;3.90;99.90;;;;;;5016760;28;20943;-26
2020/12/08 10:23:54;;;;;;;31.70;20.00;;;3.90;99.90;;;;;;5036209;28;20455;-27
2020/12/08 10:26:21;;;;;;;30.57;20.37;;;3.90;99.90;;;;;;5037358;28;20539;-27
2020/12/08 10:28:50;;;;;;;29.47;19.00;;;3.80;99.90;;;;;;5036555;28;20578;-27
2020/12/08 10:31:18;;;;;;;31.17;19.90;;;3.70;99.90;;;;;;5038158;28;20967;-28
2020/12/08 10:33:46;;;;;;;29.40;18.47;;;3.80;99.90;;;;;;5014501;28;20502;-28
2020/12/08 10:36:13;;;;;;;31.10;19.97;;;3.80;99.90;;;;;;5019417;28;20441;-28
2020/12/08 10:38:41;;;;;;;33.10;19.60;;;3.80;99.90;;;;;;5018805;28;20752;-27
2020/12/08 10:41:11;;;;;;;30.07;19.73;;;3.90;99.90;;;;;;5000621;28;20506;-25
2020/12/08 10:43:38;;;;;;;32.03;19.53;;;3.70;99.90;;;;;;5021116;28;20441;-26
2020/12/08 10:46:06;;;;;;;29.37;19.97;;;3.80;99.90;;;;;;5028561;28;20456;-26
2020/12/08 10:48:33;;;;;;;30.80;19.70;;;3.80;99.90;;;;;;5039307;28;20920;-26
2020/12/08 10:51:01;;;;;;;32.03;18.93;;;3.90;99.90;;;;;;5037904;28;20441;-27
2020/12/08 10:53:28;;;;;;;31.73;21.03;;;4.00;99.90;;;;;;5035905;28;20483;-25
2020/12/08 10:55:57;;;;;;;38.40;21.37;;;4.10;99.90;;;;;;5031411;28;21048;-26
2020/12/08 10:58:28;;;;;;;34.37;21.30;;;4.20;99.90;;;;;;5035222;28;20444;-27
2020/12/08 11:00:57;;;;;;;29.17;20.33;;;4.20;99.90;;;;;;5034520;28;20545;-25
2020/12/08 11:03:24;;;;;;;35.40;21.37;;;4.30;99.90;;;;;;5022766;28;20464;-26
2020/12/08 11:05:51;;;;;;;35.43;22.20;;;4.60;99.90;;;;;;5042437;28;21099;-26
2020/12/08 11:08:20;;;;;;;30.07;21.00;;;4.70;99.90;;;;;;5038093;28;20456;-26
2020/12/08 11:10:56;;;;;;;31.60;20.80;;;4.80;99.90;;;;;;5036594;28;20437;-25
2020/12/08 11:13:28;;;;;;;29.73;19.23;;;4.90;99.90;;;;;;5036250;28;20557;-26
2020/12/08 11:15:57;;;;;;;29.17;18.70;;;4.80;99.90;;;;;;5037657;28;20545;-26
2020/12/08 11:18:27;;;;;;;29.47;19.50;;;4.80;99.90;;;;;;5041994;28;20445;-25
2020/12/08 11:20:58;;;;;;;28.77;18.67;;;4.90;99.90;;;;;;5039057;28;20704;-26
2020/12/08 11:23:28;;;;;;;28.60;18.10;;;5.00;99.90;;;;;;5035195;28;20448;-25
2020/12/08 11:25:58;;;;;;;27.73;18.43;;;5.20;99.90;;;;;;5044046;28;20740;-25
2020/12/08 11:28:28;;;;;;;26.00;18.20;;;5.30;99.90;;;;;;5041285;28;21174;-25
2020/12/08 11:30:58;;;;;;;27.47;19.50;;;5.40;99.90;;;;;;5039451;28;20972;-26
2020/12/08 11:33:27;;;;;;;27.00;18.27;;;5.60;99.90;;;;;;5039574;28;20470;-26
2020/12/08 11:35:55;;;;;;;24.70;17.60;;;5.80;99.90;;;;;;5026928;28;20901;-25
2020/12/08 11:38:23;;;;;;;27.93;17.57;;;5.70;99.90;;;;;;5042680;28;20448;-26
2020/12/08 11:40:50;;;;;;;25.30;16.97;;;5.70;99.90;;;;;;5017575;28;20441;-27
2020/12/08 11:43:17;;;;;;;28.10;20.00;;;5.80;99.90;;;;;;5021291;28;20434;-26
2020/12/08 11:45:47;;;;;;;24.40;18.20;;;5.70;99.90;;;;;;5022052;28;20572;-26
2020/12/08 11:48:14;;;;;;;25.03;18.33;;;5.80;99.90;;;;;;5000563;28;20482;-25
2020/12/08 11:50:42;;;;;;;24.43;19.00;;;6.00;99.90;;;;;;5000283;28;20430;-27
2020/12/08 11:53:13;;;;;;;26.07;17.93;;;6.10;99.90;;;;;;5010968;28;20473;-26
2020/12/08 11:55:42;;;;;;;29.27;17.80;;;6.40;99.90;;;;;;5016109;28;20446;-26
2020/12/08 11:58:09;;;;;;;22.73;16.93;;;6.50;99.90;;;;;;5007317;28;20658;-26
2020/12/08 12:00:37;;;;;;;24.60;17.17;;;6.70;99.90;;;;;;5012205;28;20774;-26
2020/12/08 12:03:07;;;;;;;23.50;17.50;;;6.80;99.90;;;;;;5015482;28;20441;-27
2020/12/08 12:05:34;;;;;;;24.10;17.83;;;6.80;99.90;;;;;;5013645;28;20527;-26
2020/12/08 12:08:03;;;;;;;21.00;15.93;;;6.80;99.90;;;;;;5011663;28;21116;-27
2020/12/08 12:10:30;;;;;;;22.37;15.80;;;6.40;99.90;;;;;;5006929;28;20451;-28
2020/12/08 12:12:58;;;;;;;23.53;17.23;;;6.30;99.90;;;;;;5009239;28;20462;-28
2020/12/08 12:15:26;;;;;;;21.80;16.33;;;6.40;99.90;;;;;;5010204;28;20449;-27
2020/12/08 12:17:54;;;;;;;23.60;16.80;;;6.30;99.90;;;;;;5023968;28;20452;-28
2020/12/08 12:20:24;;;;;;;22.63;17.57;;;5.90;99.90;;;;;;5023933;28;20540;-27
2020/12/08 12:22:53;;;;;;;21.67;15.13;;;5.60;99.90;;;;;;5022282;28;20438;-27
2020/12/08 12:25:21;;;;;;;23.63;16.33;;;5.40;99.90;;;;;;5022099;28;20761;-28
2020/12/08 12:27:50;;;;;;;20.50;15.63;;;5.50;99.90;;;;;;5016080;28;20446;-28
2020/12/08 12:30:19;;;;;;;19.90;15.00;;;5.50;99.90;;;;;;5020752;28;20643;-29
2020/12/08 12:32:47;;;;;;;26.70;16.93;;;5.60;99.90;;;;;;5020283;28;20461;-27
2020/12/08 12:35:15;;;;;;;21.23;16.30;;;5.50;99.90;;;;;;5026105;28;21253;-26
2020/12/08 12:37:55;;;;;;;21.30;16.90;;;5.60;99.90;;;;;;5027003;28;20726;-26
2020/12/08 12:40:24;;;;;;;25.63;16.37;;;5.50;99.90;;;;;;5037638;28;20915;-25
2020/12/08 12:42:51;;;;;;;24.10;16.97;;;5.60;99.90;;;;;;5023277;28;20444;-26